Regatta — V7DM3 — position and weather

sailwx.info

Track history (hours):
 
Tides and Currents Weather Stations Pressure Air Temp Water Temp Dewpoint Dewpoint Depression Visibility Wind Speed Wind Dir Waves Ship Positions

Regatta

Last reported at 2018-Sep-18 12:47 UTC. Time now 2018-Sep-19 03:45 UTC.
Position N 49°07' W 126°38'.

Length 180 m; draft 5.7 m.

Type: Passenger vessel. MMSI: 538001664.

Date/timePositionNaut miles runAvg speedWind from/ knotsBaromVisibWave heightAir tempDewpointWater temp
2018-Sep-18 12:47N 49°07' W 126°38'518.9
2018-Sep-18 12:30N 49°04' W 126°32'918.8
2018-Sep-18 12:01N 48°58' W 126°21'019.4
2018-Sep-18 12:00N 48°58' W 126°21'918.6
2018-Sep-18 11:30N 48°52' W 126°10'818.3
2018-Sep-18 11:03N 48°47' W 125°60'118.5
2018-Sep-18 11:00N 48°47' W 125°58'918.7
2018-Sep-18 10:30N 48°42' W 125°46'818.7
2018-Sep-18 10:03N 48°38' W 125°35'119.0
2018-Sep-18 10:00N 48°38' W 125°33'1018.9
2018-Sep-18 09:30N 48°34' W 125°21'918.3
2018-Sep-18 08:59N 48°31' W 125°07'919.3
2018-Sep-18 08:30N 48°31' W 124°53'818.9
2018-Sep-18 08:03N 48°29' W 124°40'119.9
2018-Sep-18 08:00N 48°29' W 124°39'919.3
2018-Sep-18 07:30N 48°26' W 124°25'918.9
2018-Sep-18 07:03N 48°22' W 124°14'118.7
2018-Sep-18 07:00N 48°22' W 124°13'3116.8
2018-Sep-18 05:11N 48°20' W 123°26'217.5
2018-Sep-18 05:03N 48°22' W 123°25'115.1
2018-Sep-18 05:00N 48°23' W 123°24'612.6
2018-Sep-18 04:31N 48°24' W 123°15'715.5
2018-Sep-18 04:04N 48°31' W 123°13'114.8
2018-Sep-18 04:00N 48°31' W 123°13'715.1
2018-Sep-18 03:30N 48°39' W 123°15'613.5
2018-Sep-18 03:03N 48°44' W 123°10'119.7
2018-Sep-18 02:59N 48°44' W 123°08'714.5
2018-Sep-18 02:29N 48°50' W 123°01'818.7
2018-Sep-18 02:03N 48°55' W 123°11'118.8
2018-Sep-18 02:00N 48°56' W 123°12'1018.9
2018-Sep-18 01:30N 49°03' W 123°23'818.6
2018-Sep-18 01:03N 49°11' W 123°22'119.2
2018-Sep-18 01:01N 49°12' W 123°22'917.5
2018-Sep-18 00:31N 49°19' W 123°15'612.7
2018-Sep-18 00:03N 49°18' W 123°06'0 4.0
2018-Sep-18 00:00N 49°17' W 123°06'0 0.1
2018-Sep-17 23:26N 49°17' W 123°06'0 0.0
2018-Sep-17 22:59N 49°17' W 123°06'0 0.0
2018-Sep-17 22:26N 49°17' W 123°06'0 0.0
2018-Sep-17 22:02N 49°17' W 123°06'0 0.0
2018-Sep-17 21:59N 49°17' W 123°06'0 0.0
2018-Sep-17 21:29N 49°17' W 123°06'0 0.0
2018-Sep-17 21:02N 49°17' W 123°06'0 0.0
2018-Sep-17 20:59N 49°17' W 123°06'0 0.0
2018-Sep-17 20:26N 49°17' W 123°06'0 0.0
2018-Sep-17 20:02N 49°17' W 123°06'0 0.0
2018-Sep-17 19:59N 49°17' W 123°06'0 0.0
2018-Sep-17 19:26N 49°17' W 123°06'0 0.0
2018-Sep-17 19:02N 49°17' W 123°06'0 0.0
2018-Sep-17 18:59N 49°17' W 123°06'0 0.0
2018-Sep-17 18:26N 49°17' W 123°06'0 0.0
2018-Sep-17 18:02N 49°17' W 123°06'0 0.0
2018-Sep-17 17:56N 49°17' W 123°06'0 0.0
2018-Sep-17 17:29N 49°17' W 123°06'0 0.0
2018-Sep-17 17:02N 49°17' W 123°06'0 0.0
2018-Sep-17 16:59N 49°17' W 123°06'0 0.0
2018-Sep-17 16:29N 49°17' W 123°06'0 0.0
2018-Sep-17 16:02N 49°17' W 123°06'0 0.0
2018-Sep-17 15:59N 49°17' W 123°06'0 0.0
2018-Sep-17 15:29N 49°17' W 123°06'0 0.0
2018-Sep-17 15:02N 49°17' W 123°06'0 0.0
2018-Sep-17 14:59N 49°17' W 123°06'0 0.0
2018-Sep-17 14:29N 49°17' W 123°06'0 0.0
2018-Sep-17 13:59N 49°17' W 123°06'0 0.1
2018-Sep-17 13:30N 49°17' W 123°06'1 2.0
2018-Sep-17 13:03N 49°18' W 123°07'0 5.1
2018-Sep-17 13:00N 49°18' W 123°07'4 8.6
2018-Sep-17 12:30N 49°18' W 123°14'510.2
2018-Sep-17 12:03N 49°15' W 123°19'111.3
2018-Sep-17 12:00N 49°15' W 123°19'611.8
2018-Sep-17 11:30N 49°09' W 123°20'511.7
2018-Sep-17 11:03N 49°04' W 123°19'112.2
2018-Sep-17 11:00N 49°03' W 123°19'612.2
2018-Sep-17 10:30N 48°59' W 123°12'612.2
2018-Sep-17 10:03N 48°55' W 123°06'113.3
2018-Sep-17 10:00N 48°54' W 123°05'714.0
2018-Sep-17 09:29N 48°48' W 122°60'613.5
2018-Sep-17 09:03N 48°44' W 123°06'114.8
2018-Sep-17 09:00N 48°44' W 123°07'612.5
2018-Sep-17 08:30N 48°40' W 123°15'613.4
2018-Sep-17 08:04N 48°35' W 123°13'113.4
2018-Sep-17 08:01N 48°34' W 123°12'713.4
2018-Sep-17 07:30N 48°28' W 123°10'612.3
2018-Sep-17 07:03N 48°23' W 123°15'114.3
2018-Sep-17 07:01N 48°23' W 123°16'6 0.5
2018-Sep-16 18:44N 48°24' W 123°25'2 9.2
2018-Sep-16 18:27N 48°22' W 123°24'410.4
2018-Sep-16 18:03N 48°18' W 123°25'112.6
2018-Sep-16 17:59N 48°17' W 123°26'811.3
2018-Sep-16 17:15N 48°13' W 123°37'812.0
2018-Sep-16 16:33N 48°13' W 123°50'213.0
2018-Sep-16 16:26N 48°13' W 123°52'514.1
2018-Sep-16 16:04N 48°15' W 123°60'114.0
2018-Sep-16 16:00N 48°15' W 124°01'814.5
2018-Sep-16 15:29N 48°18' W 124°11'716.9
2018-Sep-16 15:04N 48°21' W 124°21'117.4
2018-Sep-16 15:00N 48°22' W 124°22'816.7
2018-Sep-16 14:31N 48°25' W 124°33'1817.1
2018-Sep-16 13:28N 48°29' W 124°60'917.8
2018-Sep-16 12:59N 48°30' W 125°12'817.8
2018-Sep-16 12:31N 48°34' W 125°24'716.3
2018-Sep-16 12:03N 48°37' W 125°34'0 6.9
2018-Sep-16 12:00N 48°37' W 125°34'917.1
2018-Sep-16 11:31N 48°42' W 125°45'817.2
2018-Sep-16 11:03N 48°45' W 125°56'117.4
2018-Sep-16 11:01N 48°46' W 125°57'917.2
2018-Sep-16 10:31N 48°50' W 126°08'817.2
2018-Sep-16 10:03N 48°55' W 126°17'116.8
2018-Sep-16 10:00N 48°56' W 126°18'817.1
2018-Sep-16 09:31N 49°01' W 126°28'65712.9
2018-Sep-14 06:27N 58°18' W 136°17'819.4
2018-Sep-14 06:03N 58°20' W 136°03'119.4
2018-Sep-14 06:00N 58°20' W 136°01'918.3
2018-Sep-14 05:30N 58°18' W 135°44'919.1
2018-Sep-14 05:03N 58°15' W 135°28'7 0.2
2018-Sep-12 10:02N 58°10' W 135°19'210.4
2018-Sep-12 09:51N 58°11' W 135°22'410.7
2018-Sep-12 09:30N 58°13' W 135°29'511.4
2018-Sep-12 09:03N 58°15' W 135°37'112.2
2018-Sep-12 09:00N 58°16' W 135°38'612.8
2018-Sep-12 08:31N 58°18' W 135°49'612.7
2018-Sep-12 08:03N 58°20' W 135°60'114.7
2018-Sep-12 08:00N 58°20' W 136°01'712.4
2018-Sep-12 07:25N 58°18' W 136°15'2 0.1
2018-Sep-11 05:07N 58°18' W 136°19'117.5
2018-Sep-11 05:03N 58°18' W 136°17'116.9
2018-Sep-11 04:59N 58°18' W 136°15'816.0
2018-Sep-11 04:30N 58°20' W 136°01'715.1
2018-Sep-11 04:03N 58°19' W 135°48'117.0
2018-Sep-11 04:00N 58°19' W 135°47'916.2
2018-Sep-11 03:28N 58°15' W 135°32'613.0
2018-Sep-11 02:59N 58°09' W 135°27'256 7.1
2018-Sep-09 14:45N 54°37' W 131°09'518.9
2018-Sep-09 14:29N 54°31' W 131°07'919.7
2018-Sep-09 14:00N 54°22' W 131°04'917.7
2018-Sep-09 13:30N 54°18' W 130°51'612.6
2018-Sep-09 13:04N 54°14' W 130°43'119.7
2018-Sep-09 13:01N 54°14' W 130°42'1019.3
2018-Sep-09 12:30N 54°09' W 130°27'818.9
2018-Sep-09 12:03N 54°04' W 130°16'119.1
2018-Sep-09 12:00N 54°03' W 130°15'917.4
2018-Sep-09 11:31N 53°55' W 130°10'817.5
2018-Sep-09 11:03N 53°50' W 129°60'118.7
2018-Sep-09 11:00N 53°49' W 129°59'8617.3
2018-Sep-09 06:04N 52°33' W 128°53'219.2
2018-Sep-09 05:58N 52°31' W 128°53'918.8
2018-Sep-09 05:31N 52°23' W 128°51'919.0
2018-Sep-09 05:03N 52°14' W 128°51'119.1
2018-Sep-09 05:00N 52°13' W 128°51'1019.1
2018-Sep-09 04:31N 52°04' W 128°52'818.6
2018-Sep-09 04:04N 51°55' W 128°52'118.2
2018-Sep-09 04:00N 51°54' W 128°52'918.1
2018-Sep-09 03:30N 51°45' W 128°52'817.0
2018-Sep-09 03:04N 51°39' W 128°45'117.7
2018-Sep-09 03:01N 51°39' W 128°44'917.9
2018-Sep-09 02:31N 51°33' W 128°33'817.5
2018-Sep-09 02:04N 51°26' W 128°28'118.5
2018-Sep-09 02:00N 51°25' W 128°27'918.4
2018-Sep-09 01:31N 51°16' W 128°26'818.1
2018-Sep-09 01:04N 51°09' W 128°18'118.4
2018-Sep-09 01:00N 51°08' W 128°17'1218.7
2018-Sep-09 00:22N 51°03' W 128°00'618.9
2018-Sep-09 00:03N 51°00' W 127°51'218.9
2018-Sep-08 23:57N 50°60' W 127°49'919.5
2018-Sep-08 23:31N 50°54' W 127°38'919.8
2018-Sep-08 23:03N 50°49' W 127°26'119.7
2018-Sep-08 23:01N 50°49' W 127°25'1019.2
2018-Sep-08 22:28N 50°45' W 127°10'918.7
2018-Sep-08 21:58N 50°42' W 126°56'6116.3
2018-Sep-08 18:14N 50°20' W 125°26'315.5
2018-Sep-08 18:04N 50°18' W 125°25'118.7
2018-Sep-08 18:00N 50°17' W 125°24'917.6
2018-Sep-08 17:31N 50°08' W 125°21'613.0
2018-Sep-08 17:03N 50°04' W 125°15'112.2
2018-Sep-08 17:00N 50°03' W 125°15'612.1
2018-Sep-08 16:31N 49°58' W 125°10'4 9.6
2018-Sep-08 16:04N 49°55' W 125°05'0 8.0
2018-Sep-08 16:00N 49°55' W 125°04'4 8.6
2018-Sep-08 15:30N 49°52' W 124°60'4 8.6
2018-Sep-08 15:03N 49°50' W 124°55'0 9.5
2018-Sep-08 15:00N 49°49' W 124°54'611.8
2018-Sep-08 14:31N 49°46' W 124°48'612.4
2018-Sep-08 14:00N 49°41' W 124°40'612.6
2018-Sep-08 13:30N 49°37' W 124°33'613.1
2018-Sep-08 13:01N 49°31' W 124°30'015.1
2018-Sep-08 13:00N 49°31' W 124°30'  
Track history (hours):
 
Tides and Currents Weather Stations Pressure Air Temp Water Temp Dewpoint Dewpoint Depression Visibility Wind Speed Wind Dir Waves Ship Positions

Regatta

Last reported at 2018-Sep-18 12:47 UTC. Time now 2018-Sep-19 03:45 UTC.
Position N 49°07' W 126°38'.

Length 180 m; draft 5.7 m.

Type: Passenger vessel. MMSI: 538001664.

Date/timePositionNaut miles runAvg speedWind from/ knotsBaromVisibWave heightAir tempDewpointWater temp
2018-Sep-18 12:47N 49°07' W 126°38'518.9
2018-Sep-18 12:30N 49°04' W 126°32'918.8
2018-Sep-18 12:01N 48°58' W 126°21'019.4
2018-Sep-18 12:00N 48°58' W 126°21'918.6
2018-Sep-18 11:30N 48°52' W 126°10'818.3
2018-Sep-18 11:03N 48°47' W 125°60'118.5
2018-Sep-18 11:00N 48°47' W 125°58'918.7
2018-Sep-18 10:30N 48°42' W 125°46'818.7
2018-Sep-18 10:03N 48°38' W 125°35'119.0
2018-Sep-18 10:00N 48°38' W 125°33'1018.9
2018-Sep-18 09:30N 48°34' W 125°21'918.3
2018-Sep-18 08:59N 48°31' W 125°07'919.3
2018-Sep-18 08:30N 48°31' W 124°53'818.9
2018-Sep-18 08:03N 48°29' W 124°40'119.9
2018-Sep-18 08:00N 48°29' W 124°39'919.3
2018-Sep-18 07:30N 48°26' W 124°25'918.9
2018-Sep-18 07:03N 48°22' W 124°14'118.7
2018-Sep-18 07:00N 48°22' W 124°13'3116.8
2018-Sep-18 05:11N 48°20' W 123°26'217.5
2018-Sep-18 05:03N 48°22' W 123°25'115.1
2018-Sep-18 05:00N 48°23' W 123°24'612.6
2018-Sep-18 04:31N 48°24' W 123°15'715.5
2018-Sep-18 04:04N 48°31' W 123°13'114.8
2018-Sep-18 04:00N 48°31' W 123°13'715.1
2018-Sep-18 03:30N 48°39' W 123°15'613.5
2018-Sep-18 03:03N 48°44' W 123°10'119.7
2018-Sep-18 02:59N 48°44' W 123°08'714.5
2018-Sep-18 02:29N 48°50' W 123°01'818.7
2018-Sep-18 02:03N 48°55' W 123°11'118.8
2018-Sep-18 02:00N 48°56' W 123°12'1018.9
2018-Sep-18 01:30N 49°03' W 123°23'818.6
2018-Sep-18 01:03N 49°11' W 123°22'119.2
2018-Sep-18 01:01N 49°12' W 123°22'917.5
2018-Sep-18 00:31N 49°19' W 123°15'612.7
2018-Sep-18 00:03N 49°18' W 123°06'0 4.0
2018-Sep-18 00:00N 49°17' W 123°06'0 0.1
2018-Sep-17 23:26N 49°17' W 123°06'0 0.0
2018-Sep-17 22:59N 49°17' W 123°06'0 0.0
2018-Sep-17 22:26N 49°17' W 123°06'0 0.0
2018-Sep-17 22:02N 49°17' W 123°06'0 0.0
2018-Sep-17 21:59N 49°17' W 123°06'0 0.0
2018-Sep-17 21:29N 49°17' W 123°06'0 0.0
2018-Sep-17 21:02N 49°17' W 123°06'0 0.0
2018-Sep-17 20:59N 49°17' W 123°06'0 0.0
2018-Sep-17 20:26N 49°17' W 123°06'0 0.0
2018-Sep-17 20:02N 49°17' W 123°06'0 0.0
2018-Sep-17 19:59N 49°17' W 123°06'0 0.0
2018-Sep-17 19:26N 49°17' W 123°06'0 0.0
2018-Sep-17 19:02N 49°17' W 123°06'0 0.0
2018-Sep-17 18:59N 49°17' W 123°06'0 0.0
2018-Sep-17 18:26N 49°17' W 123°06'0 0.0
2018-Sep-17 18:02N 49°17' W 123°06'0 0.0
2018-Sep-17 17:56N 49°17' W 123°06'0 0.0
2018-Sep-17 17:29N 49°17' W 123°06'0 0.0
2018-Sep-17 17:02N 49°17' W 123°06'0 0.0
2018-Sep-17 16:59N 49°17' W 123°06'0 0.0
2018-Sep-17 16:29N 49°17' W 123°06'0 0.0
2018-Sep-17 16:02N 49°17' W 123°06'0 0.0
2018-Sep-17 15:59N 49°17' W 123°06'0 0.0
2018-Sep-17 15:29N 49°17' W 123°06'0 0.0
2018-Sep-17 15:02N 49°17' W 123°06'0 0.0
2018-Sep-17 14:59N 49°17' W 123°06'0 0.0
2018-Sep-17 14:29N 49°17' W 123°06'0 0.0
2018-Sep-17 13:59N 49°17' W 123°06'0 0.1
2018-Sep-17 13:30N 49°17' W 123°06'1 2.0
2018-Sep-17 13:03N 49°18' W 123°07'0 5.1
2018-Sep-17 13:00N 49°18' W 123°07'4 8.6
2018-Sep-17 12:30N 49°18' W 123°14'510.2
2018-Sep-17 12:03N 49°15' W 123°19'111.3
2018-Sep-17 12:00N 49°15' W 123°19'611.8
2018-Sep-17 11:30N 49°09' W 123°20'511.7
2018-Sep-17 11:03N 49°04' W 123°19'112.2
2018-Sep-17 11:00N 49°03' W 123°19'612.2
2018-Sep-17 10:30N 48°59' W 123°12'612.2
2018-Sep-17 10:03N 48°55' W 123°06'113.3
2018-Sep-17 10:00N 48°54' W 123°05'714.0
2018-Sep-17 09:29N 48°48' W 122°60'613.5
2018-Sep-17 09:03N 48°44' W 123°06'114.8
2018-Sep-17 09:00N 48°44' W 123°07'612.5
2018-Sep-17 08:30N 48°40' W 123°15'613.4
2018-Sep-17 08:04N 48°35' W 123°13'113.4
2018-Sep-17 08:01N 48°34' W 123°12'713.4
2018-Sep-17 07:30N 48°28' W 123°10'612.3
2018-Sep-17 07:03N 48°23' W 123°15'114.3
2018-Sep-17 07:01N 48°23' W 123°16'6 0.5
2018-Sep-16 18:44N 48°24' W 123°25'2 9.2
2018-Sep-16 18:27N 48°22' W 123°24'410.4
2018-Sep-16 18:03N 48°18' W 123°25'112.6
2018-Sep-16 17:59N 48°17' W 123°26'811.3
2018-Sep-16 17:15N 48°13' W 123°37'812.0
2018-Sep-16 16:33N 48°13' W 123°50'213.0
2018-Sep-16 16:26N 48°13' W 123°52'514.1
2018-Sep-16 16:04N 48°15' W 123°60'114.0
2018-Sep-16 16:00N 48°15' W 124°01'814.5
2018-Sep-16 15:29N 48°18' W 124°11'716.9
2018-Sep-16 15:04N 48°21' W 124°21'117.4
2018-Sep-16 15:00N 48°22' W 124°22'816.7
2018-Sep-16 14:31N 48°25' W 124°33'1817.1
2018-Sep-16 13:28N 48°29' W 124°60'917.8
2018-Sep-16 12:59N 48°30' W 125°12'817.8
2018-Sep-16 12:31N 48°34' W 125°24'716.3
2018-Sep-16 12:03N 48°37' W 125°34'0 6.9
2018-Sep-16 12:00N 48°37' W 125°34'917.1
2018-Sep-16 11:31N 48°42' W 125°45'817.2
2018-Sep-16 11:03N 48°45' W 125°56'117.4
2018-Sep-16 11:01N 48°46' W 125°57'917.2
2018-Sep-16 10:31N 48°50' W 126°08'817.2
2018-Sep-16 10:03N 48°55' W 126°17'116.8
2018-Sep-16 10:00N 48°56' W 126°18'817.1
2018-Sep-16 09:31N 49°01' W 126°28'65712.9
2018-Sep-14 06:27N 58°18' W 136°17'819.4
2018-Sep-14 06:03N 58°20' W 136°03'119.4
2018-Sep-14 06:00N 58°20' W 136°01'918.3
2018-Sep-14 05:30N 58°18' W 135°44'919.1
2018-Sep-14 05:03N 58°15' W 135°28'7 0.2
2018-Sep-12 10:02N 58°10' W 135°19'210.4
2018-Sep-12 09:51N 58°11' W 135°22'410.7
2018-Sep-12 09:30N 58°13' W 135°29'511.4
2018-Sep-12 09:03N 58°15' W 135°37'112.2
2018-Sep-12 09:00N 58°16' W 135°38'612.8
2018-Sep-12 08:31N 58°18' W 135°49'612.7
2018-Sep-12 08:03N 58°20' W 135°60'114.7
2018-Sep-12 08:00N 58°20' W 136°01'712.4
2018-Sep-12 07:25N 58°18' W 136°15'2 0.1
2018-Sep-11 05:07N 58°18' W 136°19'117.5
2018-Sep-11 05:03N 58°18' W 136°17'116.9
2018-Sep-11 04:59N 58°18' W 136°15'816.0
2018-Sep-11 04:30N 58°20' W 136°01'715.1
2018-Sep-11 04:03N 58°19' W 135°48'117.0
2018-Sep-11 04:00N 58°19' W 135°47'916.2
2018-Sep-11 03:28N 58°15' W 135°32'613.0
2018-Sep-11 02:59N 58°09' W 135°27'256 7.1
2018-Sep-09 14:45N 54°37' W 131°09'518.9
2018-Sep-09 14:29N 54°31' W 131°07'919.7
2018-Sep-09 14:00N 54°22' W 131°04'917.7
2018-Sep-09 13:30N 54°18' W 130°51'612.6
2018-Sep-09 13:04N 54°14' W 130°43'119.7
2018-Sep-09 13:01N 54°14' W 130°42'1019.3
2018-Sep-09 12:30N 54°09' W 130°27'818.9
2018-Sep-09 12:03N 54°04' W 130°16'119.1
2018-Sep-09 12:00N 54°03' W 130°15'917.4
2018-Sep-09 11:31N 53°55' W 130°10'817.5
2018-Sep-09 11:03N 53°50' W 129°60'118.7
2018-Sep-09 11:00N 53°49' W 129°59'8617.3
2018-Sep-09 06:04N 52°33' W 128°53'219.2
2018-Sep-09 05:58N 52°31' W 128°53'918.8
2018-Sep-09 05:31N 52°23' W 128°51'919.0
2018-Sep-09 05:03N 52°14' W 128°51'119.1
2018-Sep-09 05:00N 52°13' W 128°51'1019.1
2018-Sep-09 04:31N 52°04' W 128°52'818.6
2018-Sep-09 04:04N 51°55' W 128°52'118.2
2018-Sep-09 04:00N 51°54' W 128°52'918.1
2018-Sep-09 03:30N 51°45' W 128°52'817.0
2018-Sep-09 03:04N 51°39' W 128°45'117.7
2018-Sep-09 03:01N 51°39' W 128°44'917.9
2018-Sep-09 02:31N 51°33' W 128°33'817.5
2018-Sep-09 02:04N 51°26' W 128°28'118.5
2018-Sep-09 02:00N 51°25' W 128°27'918.4
2018-Sep-09 01:31N 51°16' W 128°26'818.1
2018-Sep-09 01:04N 51°09' W 128°18'118.4
2018-Sep-09 01:00N 51°08' W 128°17'1218.7
2018-Sep-09 00:22N 51°03' W 128°00'618.9
2018-Sep-09 00:03N 51°00' W 127°51'218.9
2018-Sep-08 23:57N 50°60' W 127°49'919.5
2018-Sep-08 23:31N 50°54' W 127°38'919.8
2018-Sep-08 23:03N 50°49' W 127°26'119.7
2018-Sep-08 23:01N 50°49' W 127°25'1019.2
2018-Sep-08 22:28N 50°45' W 127°10'918.7
2018-Sep-08 21:58N 50°42' W 126°56'6116.3
2018-Sep-08 18:14N 50°20' W 125°26'315.5
2018-Sep-08 18:04N 50°18' W 125°25'118.7
2018-Sep-08 18:00N 50°17' W 125°24'917.6
2018-Sep-08 17:31N 50°08' W 125°21'613.0
2018-Sep-08 17:03N 50°04' W 125°15'112.2
2018-Sep-08 17:00N 50°03' W 125°15'612.1
2018-Sep-08 16:31N 49°58' W 125°10'4 9.6
2018-Sep-08 16:04N 49°55' W 125°05'0 8.0
2018-Sep-08 16:00N 49°55' W 125°04'4 8.6
2018-Sep-08 15:30N 49°52' W 124°60'4 8.6
2018-Sep-08 15:03N 49°50' W 124°55'0 9.5
2018-Sep-08 15:00N 49°49' W 124°54'611.8
2018-Sep-08 14:31N 49°46' W 124°48'612.4
2018-Sep-08 14:00N 49°41' W 124°40'612.6
2018-Sep-08 13:30N 49°37' W 124°33'613.1
2018-Sep-08 13:01N 49°31' W 124°30'015.1
2018-Sep-08 13:00N 49°31' W 124°30'  

Dump ship's entire track history